Indiantown, Florida
Current Conditions -  °F | °C
As of 7:47 AM on Saturday 25 Oct 2014 (Local Time) from KSUA Reporting Station
Scattered Clouds Scattered Clouds  
Wind Chill: 64°   Ceiling: Unl
Heat Index: 64°   Visibility: 7mi
Dew Point: 61°   Wind: 7mph
Humidity: 88%   Direction: 290°WNW
Pressure: 29.93"   Gusts: NA
Location:  27.03°N, 80.49°W
Report Text: KSUA 251147Z 29006KT 7SM SCT040 18/16 A2993
Loading
Personal Weather Stations






























Interactive Weather Map
Tropical Storm Tracking
New forecast layout! Learn more

10-Day Weather Forecast

Advertisements
Track Severe Weather on mobile